createdAt,value
2023-03-02T00:01:15.690Z,2.20
2023-03-02T00:02:48.647Z,2.20
2023-03-02T00:04:29.847Z,2.30
2023-03-02T00:06:03.247Z,2.20
2023-03-02T00:07:36.546Z,2.20
2023-03-02T00:09:09.690Z,2.20
2023-03-02T00:10:42.740Z,2.10
2023-03-02T00:12:17.091Z,2.10
2023-03-02T00:13:50.003Z,2.10
2023-03-02T00:15:24.363Z,2.10
2023-03-02T00:16:57.794Z,2.10
2023-03-02T00:18:31.283Z,2.20
2023-03-02T00:20:10.945Z,2.20
2023-03-02T00:21:43.874Z,2.20
2023-03-02T00:23:16.060Z,2.20
2023-03-02T00:24:48.969Z,2.20
2023-03-02T00:26:22.424Z,2.20
2023-03-02T00:27:55.251Z,2.20
2023-03-02T00:29:28.213Z,2.20
2023-03-02T00:31:05.643Z,2.20
2023-03-02T00:32:37.721Z,2.20
2023-03-02T00:34:10.606Z,2.20
2023-03-02T00:35:43.586Z,2.20
2023-03-02T00:37:15.836Z,2.10
2023-03-02T00:38:49.048Z,2.20
2023-03-02T00:40:21.162Z,2.20
2023-03-02T00:41:54.019Z,2.10
2023-03-02T00:43:28.050Z,2.10
2023-03-02T00:45:01.561Z,2.10
2023-03-02T00:46:36.035Z,2.10
2023-03-02T00:48:09.412Z,2.20
2023-03-02T00:49:42.288Z,2.20
2023-03-02T00:51:16.568Z,2.20
2023-03-02T00:52:49.527Z,2.20
2023-03-02T00:54:22.553Z,2.20
2023-03-02T00:55:56.022Z,2.20
2023-03-02T00:57:29.202Z,2.10
2023-03-02T00:59:06.562Z,2.10
2023-03-02T01:00:39.627Z,2.10
2023-03-02T01:02:13.987Z,2.00
2023-03-02T01:03:46.233Z,2.00
2023-03-02T01:05:19.408Z,2.00
2023-03-02T01:06:51.404Z,2.10
2023-03-02T01:08:25.163Z,2.10
2023-03-02T01:09:57.103Z,2.10
2023-03-02T01:11:29.974Z,2.10
2023-03-02T01:13:03.069Z,2.10
2023-03-02T01:14:35.888Z,2.20
2023-03-02T01:16:09.258Z,2.20
2023-03-02T01:17:43.998Z,2.10
2023-03-02T01:19:17.348Z,2.20
2023-03-02T01:20:50.070Z,2.20
2023-03-02T01:22:23.918Z,2.10
2023-03-02T01:23:57.109Z,2.20
2023-03-02T01:25:31.197Z,2.10
2023-03-02T01:27:04.283Z,2.10
2023-03-02T01:28:37.590Z,2.10
2023-03-02T01:30:12.227Z,2.10
2023-03-02T01:31:45.127Z,2.10
2023-03-02T01:33:19.523Z,2.00
2023-03-02T01:34:52.535Z,1.90
2023-03-02T01:36:24.519Z,1.90
2023-03-02T01:37:57.484Z,1.90
2023-03-02T01:39:29.407Z,1.90
2023-03-02T01:41:02.343Z,1.90
2023-03-02T01:42:40.925Z,1.90
2023-03-02T01:44:35.230Z,1.90
2023-03-02T01:46:13.792Z,2.00
2023-03-02T01:47:46.876Z,1.90
2023-03-02T01:49:20.421Z,1.90
2023-03-02T01:50:54.326Z,1.80
2023-03-02T01:52:28.424Z,1.90
2023-03-02T01:54:04.869Z,1.90
2023-03-02T01:55:39.630Z,1.90
2023-03-02T01:57:13.087Z,1.80
2023-03-02T01:58:47.072Z,1.90
2023-03-02T02:00:23.154Z,1.90
2023-03-02T02:01:59.613Z,1.90
2023-03-02T02:03:33.209Z,1.90
2023-03-02T02:05:08.155Z,1.90
2023-03-02T02:06:43.883Z,1.90
2023-03-02T02:08:17.010Z,2.00
2023-03-02T02:09:51.494Z,2.00
2023-03-02T02:11:24.771Z,1.90
2023-03-02T02:12:57.869Z,1.90
2023-03-02T02:14:30.807Z,1.90
2023-03-02T02:16:04.614Z,1.80
2023-03-02T02:17:36.559Z,1.80
2023-03-02T02:19:16.702Z,1.80
2023-03-02T02:20:55.102Z,1.80
2023-03-02T02:22:40.506Z,1.80
2023-03-02T02:24:20.845Z,1.80
2023-03-02T02:26:31.928Z,1.80
2023-03-02T02:28:08.510Z,1.70
2023-03-02T02:29:45.798Z,1.70
2023-03-02T02:31:22.500Z,1.70
2023-03-02T02:32:56.425Z,1.60
2023-03-02T02:34:33.536Z,1.60
2023-03-02T02:36:11.330Z,1.60
2023-03-02T02:37:47.592Z,1.60
2023-03-02T02:39:23.069Z,1.50
2023-03-02T02:40:59.693Z,1.50
2023-03-02T02:42:36.859Z,1.40
2023-03-02T02:44:14.001Z,1.30
2023-03-02T02:45:48.083Z,1.20
2023-03-02T02:47:23.484Z,1.30
2023-03-02T02:48:55.807Z,1.20
2023-03-02T02:50:33.533Z,1.20
2023-03-02T02:52:07.950Z,1.20
2023-03-02T02:53:45.954Z,1.20
2023-03-02T02:55:23.989Z,1.20
2023-03-02T02:56:57.059Z,1.20
2023-03-02T02:58:35.354Z,1.30
2023-03-02T03:00:17.263Z,1.20
2023-03-02T03:01:51.396Z,1.30
2023-03-02T03:03:31.167Z,1.40
2023-03-02T03:05:04.364Z,1.40
2023-03-02T03:06:38.471Z,1.50
2023-03-02T03:08:32.169Z,1.60
2023-03-02T03:10:09.772Z,1.60
2023-03-02T03:11:46.015Z,1.50
2023-03-02T03:13:18.012Z,1.50
2023-03-02T03:14:53.867Z,1.50
2023-03-02T03:16:29.005Z,1.40
2023-03-02T03:18:01.910Z,1.40
2023-03-02T03:19:34.835Z,1.40
2023-03-02T03:21:06.887Z,1.50
2023-03-02T03:22:39.896Z,1.50
2023-03-02T03:24:12.960Z,1.50
2023-03-02T03:25:45.928Z,1.50
2023-03-02T03:27:18.868Z,1.50
2023-03-02T03:28:51.832Z,1.60
2023-03-02T03:30:26.091Z,1.60
2023-03-02T03:32:00.607Z,1.60
2023-03-02T03:33:32.603Z,1.70
2023-03-02T03:35:08.584Z,1.70
2023-03-02T03:36:43.272Z,1.70
2023-03-02T03:38:15.235Z,1.70
2023-03-02T03:39:48.775Z,1.70
2023-03-02T03:41:21.730Z,1.80
2023-03-02T03:42:54.653Z,1.70
2023-03-02T03:44:27.553Z,1.70
2023-03-02T03:46:02.044Z,1.70
2023-03-02T03:47:34.975Z,1.70
2023-03-02T03:49:07.989Z,1.70
2023-03-02T03:50:40.895Z,1.70
2023-03-02T03:52:13.801Z,1.70
2023-03-02T03:53:46.859Z,1.70
2023-03-02T03:55:20.259Z,1.70
2023-03-02T03:56:53.038Z,1.70
2023-03-02T03:58:25.547Z,1.70
2023-03-02T03:59:58.568Z,1.70
2023-03-02T04:01:34.932Z,1.70
2023-03-02T04:03:07.969Z,1.70
2023-03-02T04:04:41.184Z,1.70
2023-03-02T04:06:18.907Z,1.60
2023-03-02T04:07:51.959Z,1.70
2023-03-02T04:09:25.658Z,1.70
2023-03-02T04:10:58.620Z,1.70
2023-03-02T04:12:31.906Z,1.70
2023-03-02T04:14:05.332Z,1.70
2023-03-02T04:15:38.314Z,1.70
2023-03-02T04:17:12.665Z,1.80
2023-03-02T04:18:44.608Z,1.80
2023-03-02T04:20:18.530Z,1.80
2023-03-02T04:21:53.359Z,1.80
2023-03-02T04:23:26.366Z,1.80
2023-03-02T04:24:59.245Z,1.80
2023-03-02T04:26:32.563Z,1.90
2023-03-02T04:28:06.032Z,2.00
2023-03-02T04:29:38.155Z,2.00
2023-03-02T04:31:11.233Z,2.00
2023-03-02T04:32:44.659Z,2.00
2023-03-02T04:34:17.496Z,2.00
2023-03-02T04:35:50.829Z,2.00
2023-03-02T04:37:22.786Z,2.00
2023-03-02T04:38:55.696Z,2.00
2023-03-02T04:40:28.126Z,1.90
2023-03-02T04:42:01.049Z,2.00
2023-03-02T04:43:34.168Z,2.00
2023-03-02T04:45:07.460Z,2.00
2023-03-02T04:46:42.898Z,2.00
2023-03-02T04:48:19.087Z,2.00
2023-03-02T04:49:54.693Z,2.00
2023-03-02T04:51:30.919Z,2.00
2023-03-02T04:53:04.126Z,1.90
2023-03-02T04:54:37.047Z,1.90
2023-03-02T04:56:10.145Z,1.80
2023-03-02T04:57:42.042Z,1.80
2023-03-02T04:59:15.112Z,1.90
2023-03-02T05:00:48.381Z,1.90
2023-03-02T05:02:20.421Z,1.90
2023-03-02T05:03:54.831Z,1.80
2023-03-02T05:05:29.473Z,1.80
2023-03-02T05:07:01.423Z,1.80
2023-03-02T05:08:35.002Z,1.70
2023-03-02T05:10:08.161Z,1.70
2023-03-02T05:11:41.582Z,1.70
2023-03-02T05:13:14.342Z,1.80
2023-03-02T05:14:47.271Z,1.80
2023-03-02T05:16:20.398Z,1.80
2023-03-02T05:17:53.467Z,1.70
2023-03-02T05:19:28.042Z,1.80
2023-03-02T05:21:00.971Z,1.80
2023-03-02T05:22:33.885Z,1.80
2023-03-02T05:24:07.493Z,1.80
2023-03-02T05:25:40.495Z,1.70
2023-03-02T05:27:13.408Z,1.70
2023-03-02T05:28:47.460Z,1.70
2023-03-02T05:30:19.742Z,1.60
2023-03-02T05:31:52.872Z,1.60
2023-03-02T05:33:25.153Z,1.60
2023-03-02T05:34:59.490Z,1.60
2023-03-02T05:36:33.031Z,1.70
2023-03-02T05:38:06.187Z,1.70
2023-03-02T05:39:39.426Z,1.70
2023-03-02T05:41:12.500Z,1.70
2023-03-02T05:42:45.857Z,1.60
2023-03-02T05:44:18.855Z,1.50
2023-03-02T05:45:50.878Z,1.60
2023-03-02T05:47:23.967Z,1.50
2023-03-02T05:48:56.911Z,1.50
2023-03-02T05:50:30.399Z,1.50
2023-03-02T05:52:03.175Z,1.50
2023-03-02T05:53:45.230Z,1.50
2023-03-02T05:55:20.179Z,1.60
2023-03-02T05:56:53.113Z,1.60
2023-03-02T05:58:25.097Z,1.60
2023-03-02T05:59:57.992Z,1.60
2023-03-02T06:01:31.417Z,1.60
2023-03-02T06:03:03.805Z,1.70
2023-03-02T06:04:43.176Z,1.80
2023-03-02T06:06:18.159Z,1.80
2023-03-02T06:07:50.269Z,1.80
2023-03-02T06:09:23.341Z,1.80
2023-03-02T06:10:57.138Z,1.80
2023-03-02T06:12:30.193Z,1.80
2023-03-02T06:14:03.127Z,1.90
2023-03-02T06:15:37.063Z,2.00
2023-03-02T06:17:10.266Z,2.00
2023-03-02T06:18:43.210Z,2.00
2023-03-02T06:20:18.332Z,2.10
2023-03-02T06:21:52.724Z,2.20
2023-03-02T06:23:25.818Z,2.20
2023-03-02T06:24:58.792Z,2.20
2023-03-02T06:26:32.176Z,2.20
2023-03-02T06:28:05.842Z,2.30
2023-03-02T06:29:41.495Z,2.30
2023-03-02T06:31:14.813Z,2.40
2023-03-02T06:32:47.820Z,2.40
2023-03-02T06:34:21.031Z,2.40
2023-03-02T06:35:54.292Z,2.40
2023-03-02T06:37:30.087Z,2.40
2023-03-02T06:39:03.266Z,2.40
2023-03-02T06:40:36.411Z,2.40
2023-03-02T06:42:12.493Z,2.40
2023-03-02T06:43:45.608Z,2.50
2023-03-02T06:45:18.825Z,2.50
2023-03-02T06:46:52.438Z,2.50
2023-03-02T06:48:25.644Z,2.50
2023-03-02T06:49:58.902Z,2.60
2023-03-02T06:51:32.075Z,2.60
2023-03-02T06:53:06.604Z,2.60
2023-03-02T06:54:39.786Z,2.70
2023-03-02T06:56:12.804Z,2.70
2023-03-02T06:57:45.216Z,2.70
2023-03-02T06:59:18.422Z,2.70
2023-03-02T07:00:51.707Z,2.70
2023-03-02T07:02:24.914Z,2.70
2023-03-02T07:03:58.307Z,2.80
2023-03-02T07:05:32.265Z,2.80
2023-03-02T07:07:06.066Z,2.80
2023-03-02T07:08:40.958Z,2.90
2023-03-02T07:10:14.680Z,2.90
2023-03-02T07:11:47.834Z,2.90
2023-03-02T07:13:23.628Z,3.00
2023-03-02T07:14:56.835Z,3.00
2023-03-02T07:16:31.300Z,3.00
2023-03-02T07:18:04.489Z,3.00
2023-03-02T07:19:40.793Z,3.00
2023-03-02T07:21:14.305Z,3.10
2023-03-02T07:22:47.196Z,3.10
2023-03-02T07:24:22.623Z,3.20
2023-03-02T07:25:56.332Z,3.20
2023-03-02T07:27:29.666Z,3.20
2023-03-02T07:29:02.585Z,3.20
2023-03-02T07:30:35.890Z,3.30
2023-03-02T07:32:12.093Z,3.30
2023-03-02T07:33:45.573Z,3.30
2023-03-02T07:35:19.314Z,3.30
2023-03-02T07:36:52.632Z,3.40
2023-03-02T07:38:25.965Z,3.40
2023-03-02T07:40:01.034Z,3.50
2023-03-02T07:41:34.579Z,3.50
2023-03-02T07:43:09.913Z,3.60
2023-03-02T07:44:43.447Z,3.60
2023-03-02T07:46:16.578Z,3.60
2023-03-02T07:47:49.846Z,3.70
2023-03-02T07:49:23.270Z,3.70
2023-03-02T07:50:58.463Z,3.70
2023-03-02T07:52:32.108Z,3.80
2023-03-02T07:54:08.086Z,3.80
2023-03-02T07:55:46.086Z,3.80
2023-03-02T07:57:19.235Z,3.90
2023-03-02T07:58:52.451Z,3.90
2023-03-02T08:00:28.469Z,4.00
2023-03-02T08:02:01.755Z,4.00
2023-03-02T08:03:34.992Z,4.00
2023-03-02T08:05:12.088Z,4.10
2023-03-02T08:06:45.147Z,4.10
2023-03-02T08:08:18.473Z,4.20
2023-03-02T08:09:51.642Z,4.20
2023-03-02T08:11:25.990Z,4.30
2023-03-02T08:12:59.267Z,4.30
2023-03-02T08:14:32.587Z,4.30
2023-03-02T08:16:06.226Z,4.40
2023-03-02T08:17:39.516Z,4.40
2023-03-02T08:19:12.906Z,4.50
2023-03-02T08:20:45.584Z,4.50
2023-03-02T08:22:18.641Z,4.50
2023-03-02T08:23:52.003Z,4.50
2023-03-02T08:25:24.915Z,4.60
2023-03-02T08:27:01.194Z,4.60
2023-03-02T08:28:34.948Z,4.70
2023-03-02T08:30:10.699Z,4.70
2023-03-02T08:31:43.683Z,4.80
2023-03-02T08:33:16.707Z,4.80
2023-03-02T08:34:51.712Z,4.80
2023-03-02T08:36:24.640Z,4.90
2023-03-02T08:37:59.624Z,4.90
2023-03-02T08:39:33.173Z,4.90
2023-03-02T08:41:07.818Z,5.00
2023-03-02T08:42:42.089Z,5.00
2023-03-02T08:44:15.012Z,5.20
2023-03-02T08:45:52.583Z,5.20
2023-03-02T08:47:25.664Z,5.20
2023-03-02T08:48:58.579Z,5.20
2023-03-02T08:50:31.508Z,5.30
2023-03-02T08:52:05.156Z,5.30
2023-03-02T08:53:40.045Z,5.40
2023-03-02T08:55:13.980Z,5.40
2023-03-02T08:56:47.041Z,5.40
2023-03-02T08:58:21.411Z,5.40
2023-03-02T08:59:54.451Z,5.40
2023-03-02T09:04:48.101Z,5.60
2023-03-02T09:06:21.644Z,5.70
2023-03-02T09:07:54.602Z,5.70
2023-03-02T09:09:27.452Z,5.80
2023-03-02T09:11:00.360Z,5.90
2023-03-02T09:12:33.260Z,5.90
2023-03-02T09:14:07.470Z,6.00
2023-03-02T09:15:40.300Z,6.10
2023-03-02T09:17:15.496Z,6.10
2023-03-02T09:18:48.847Z,6.10
2023-03-02T09:20:21.590Z,6.10
2023-03-02T09:21:54.530Z,6.10
2023-03-02T09:23:28.935Z,6.10
2023-03-02T09:25:01.831Z,6.10
2023-03-02T09:26:35.018Z,6.10
2023-03-02T09:28:08.085Z,6.20
2023-03-02T09:29:42.660Z,6.20
2023-03-02T09:31:15.776Z,6.30
2023-03-02T09:32:49.090Z,6.30
2023-03-02T09:34:22.309Z,6.30
2023-03-02T09:35:55.258Z,6.30
2023-03-02T09:37:29.287Z,6.40
2023-03-02T09:39:08.372Z,6.50
2023-03-02T09:40:52.053Z,6.60
2023-03-02T09:42:44.150Z,6.70
2023-03-02T09:44:43.724Z,6.70
2023-03-02T09:46:21.782Z,6.70
2023-03-02T09:48:06.400Z,6.80
2023-03-02T09:49:55.442Z,6.70
2023-03-02T09:51:35.025Z,6.70
2023-03-02T09:53:25.776Z,6.80
2023-03-02T09:55:02.574Z,6.80
2023-03-02T09:56:38.908Z,6.90
2023-03-02T09:58:17.164Z,7.00
2023-03-02T09:59:55.570Z,7.10
2023-03-02T10:01:39.445Z,7.10
2023-03-02T10:03:17.643Z,7.20
2023-03-02T10:04:54.411Z,7.30
2023-03-02T10:06:27.615Z,7.40
2023-03-02T10:08:00.769Z,7.50
2023-03-02T10:09:33.785Z,7.50
2023-03-02T10:11:14.380Z,7.60
2023-03-02T10:13:02.089Z,7.60
2023-03-02T10:14:40.237Z,7.70
2023-03-02T10:16:27.027Z,7.70
2023-03-02T10:18:11.853Z,7.70
2023-03-02T10:19:48.887Z,7.70
2023-03-02T10:21:27.965Z,7.80
2023-03-02T10:23:09.651Z,7.80
2023-03-02T10:24:52.161Z,7.90
2023-03-02T10:26:38.671Z,7.90
2023-03-02T10:28:19.142Z,8.00
2023-03-02T10:29:59.605Z,8.00
2023-03-02T10:31:34.588Z,7.90
2023-03-02T10:33:15.927Z,8.00
2023-03-02T10:34:50.074Z,8.00
2023-03-02T10:36:25.611Z,8.00
2023-03-02T10:38:01.574Z,8.10
2023-03-02T10:39:34.596Z,8.20
2023-03-02T10:41:15.349Z,8.30
2023-03-02T10:42:48.628Z,8.30
2023-03-02T10:44:24.518Z,8.40
2023-03-02T10:46:02.264Z,8.50
2023-03-02T10:47:35.354Z,8.50
2023-03-02T10:49:25.925Z,8.60
2023-03-02T10:51:00.353Z,8.50
2023-03-02T10:52:33.373Z,8.60
2023-03-02T10:54:08.551Z,8.60
2023-03-02T10:55:46.897Z,8.70
2023-03-02T10:57:30.169Z,8.70
2023-03-02T10:59:16.618Z,8.70
2023-03-02T11:00:58.096Z,8.80
2023-03-02T11:02:34.910Z,8.90
2023-03-02T11:04:16.350Z,8.90
2023-03-02T11:05:50.953Z,9.00
2023-03-02T11:07:25.780Z,9.00
2023-03-02T11:09:04.250Z,9.10
2023-03-02T11:10:38.821Z,9.10
2023-03-02T11:12:17.346Z,9.20
2023-03-02T11:13:50.427Z,9.30
2023-03-02T11:15:26.499Z,9.30
2023-03-02T11:17:03.351Z,9.40
2023-03-02T11:18:41.014Z,9.50
2023-03-02T11:20:18.764Z,9.60
2023-03-02T11:22:01.344Z,9.60
2023-03-02T11:23:42.020Z,9.60
2023-03-02T11:25:23.619Z,9.70
2023-03-02T11:27:00.569Z,9.70
2023-03-02T11:28:41.495Z,9.80
2023-03-02T11:30:18.450Z,9.80
2023-03-02T11:31:54.520Z,9.90
2023-03-02T11:33:34.225Z,10.00
2023-03-02T11:35:14.766Z,10.00
2023-03-02T11:36:59.237Z,9.90
2023-03-02T11:38:37.872Z,10.00
2023-03-02T11:40:22.491Z,10.00
2023-03-02T11:41:55.428Z,10.00
2023-03-02T11:43:28.353Z,10.10
2023-03-02T11:45:04.918Z,10.10
2023-03-02T11:46:37.945Z,10.10
2023-03-02T11:48:18.784Z,10.20
2023-03-02T11:49:55.860Z,10.30
2023-03-02T11:51:34.417Z,10.40
2023-03-02T11:53:15.385Z,10.50
2023-03-02T11:54:54.653Z,10.50
2023-03-02T11:56:31.558Z,10.60
2023-03-02T11:58:05.941Z,10.60
2023-03-02T11:59:39.521Z,10.60
2023-03-02T12:01:19.190Z,10.60
2023-03-02T12:03:03.068Z,10.50
2023-03-02T12:04:37.138Z,10.60
2023-03-02T12:06:35.597Z,10.50
2023-03-02T12:08:34.566Z,10.50
2023-03-02T12:10:10.209Z,10.60
2023-03-02T12:11:46.759Z,10.60
2023-03-02T12:13:22.079Z,10.60
2023-03-02T12:14:55.069Z,10.70
2023-03-02T12:16:37.057Z,10.70
2023-03-02T12:18:30.129Z,10.90
2023-03-02T12:20:26.959Z,10.90
2023-03-02T12:22:02.114Z,10.90
2023-03-02T12:23:42.047Z,10.90
2023-03-02T12:25:28.715Z,11.00
2023-03-02T12:27:04.785Z,11.00
2023-03-02T12:28:40.694Z,11.00
2023-03-02T12:30:26.492Z,11.00
2023-03-02T12:31:59.569Z,11.10
2023-03-02T12:33:32.774Z,11.10
2023-03-02T12:35:12.675Z,11.10
2023-03-02T12:36:46.169Z,11.10
2023-03-02T12:38:29.598Z,11.20
2023-03-02T12:40:29.575Z,11.20
2023-03-02T12:42:30.698Z,11.30
2023-03-02T12:44:18.072Z,11.40
2023-03-02T12:46:06.762Z,11.50
2023-03-02T12:47:43.303Z,11.40
2023-03-02T12:49:28.318Z,11.40
2023-03-02T12:51:03.483Z,11.50
2023-03-02T12:52:37.940Z,11.50
2023-03-02T12:54:15.477Z,11.50
2023-03-02T12:55:49.774Z,11.50
2023-03-02T12:57:22.747Z,11.60
2023-03-02T12:58:56.190Z,11.60
2023-03-02T13:00:32.243Z,11.60
2023-03-02T13:02:07.155Z,11.60
2023-03-02T13:03:48.736Z,11.60
2023-03-02T13:05:24.292Z,11.70
2023-03-02T13:06:57.706Z,11.80
2023-03-02T13:08:30.862Z,11.90
2023-03-02T13:10:09.513Z,11.90
2023-03-02T13:11:44.604Z,11.90
2023-03-02T13:13:19.638Z,11.90
2023-03-02T13:14:55.853Z,11.90
2023-03-02T13:16:31.562Z,11.90
2023-03-02T13:18:05.072Z,11.90
2023-03-02T13:19:38.727Z,11.90
2023-03-02T13:21:14.753Z,11.90
2023-03-02T13:22:47.772Z,11.80
2023-03-02T13:24:37.647Z,11.70
2023-03-02T13:26:26.760Z,11.70
2023-03-02T13:28:07.399Z,11.70
2023-03-02T13:29:40.432Z,11.60
2023-03-02T13:31:21.163Z,11.70
2023-03-02T13:33:00.817Z,11.80
2023-03-02T13:34:50.385Z,11.80
2023-03-02T13:36:26.906Z,11.90
2023-03-02T13:38:03.364Z,11.80
2023-03-02T13:39:36.298Z,11.80
2023-03-02T13:41:10.858Z,11.70
2023-03-02T13:42:43.972Z,11.70
2023-03-02T13:44:21.441Z,11.70
2023-03-02T13:45:57.113Z,11.70
2023-03-02T13:47:29.998Z,11.70
2023-03-02T13:49:10.644Z,11.70
2023-03-02T13:50:53.134Z,11.80
2023-03-02T13:52:30.500Z,11.80
2023-03-02T13:54:05.765Z,11.80
2023-03-02T13:55:41.274Z,11.80
2023-03-02T13:57:17.617Z,11.80
2023-03-02T13:58:50.548Z,11.80
2023-03-02T14:00:31.412Z,11.80
2023-03-02T14:02:04.359Z,11.80
2023-03-02T14:03:37.255Z,11.70
2023-03-02T14:05:19.875Z,11.80
2023-03-02T14:06:53.918Z,11.80
2023-03-02T14:08:27.370Z,11.80
2023-03-02T14:10:00.220Z,11.80
2023-03-02T14:11:37.389Z,11.80
2023-03-02T14:13:16.047Z,11.80
2023-03-02T14:14:49.048Z,11.70
2023-03-02T14:16:24.272Z,11.70
2023-03-02T14:17:57.246Z,11.80
2023-03-02T14:19:30.188Z,11.80
2023-03-02T14:21:03.146Z,11.80
2023-03-02T14:22:36.193Z,11.80
2023-03-02T14:24:09.218Z,11.70
2023-03-02T14:25:42.163Z,11.80
2023-03-02T14:27:16.317Z,11.80
2023-03-02T14:28:56.523Z,11.80
2023-03-02T14:30:36.437Z,11.80
2023-03-02T14:32:13.644Z,11.80
2023-03-02T14:33:46.653Z,11.80
2023-03-02T14:35:19.606Z,11.80
2023-03-02T14:36:55.461Z,11.80
2023-03-02T14:38:28.808Z,11.80
2023-03-02T14:40:01.644Z,11.80
2023-03-02T14:41:51.221Z,11.80
2023-03-02T14:43:26.265Z,11.80
2023-03-02T14:44:59.953Z,11.70
2023-03-02T14:46:33.007Z,11.70
2023-03-02T14:48:07.363Z,11.70
2023-03-02T14:49:40.939Z,11.70
2023-03-02T14:51:21.795Z,11.70
2023-03-02T14:52:56.717Z,11.70
2023-03-02T14:54:37.080Z,11.70
2023-03-02T14:56:12.725Z,11.70
2023-03-02T14:57:45.733Z,11.70
2023-03-02T14:59:18.781Z,11.70
2023-03-02T15:00:51.661Z,11.80
2023-03-02T15:02:26.904Z,11.80
2023-03-02T15:04:01.382Z,11.80
2023-03-02T15:05:34.302Z,11.80
2023-03-02T15:07:07.244Z,11.80
2023-03-02T15:08:40.128Z,11.70
2023-03-02T15:10:16.508Z,11.70
2023-03-02T15:11:49.435Z,11.70
2023-03-02T15:13:22.331Z,11.70
2023-03-02T15:14:55.301Z,11.60
2023-03-02T15:16:28.218Z,11.60
2023-03-02T15:18:01.164Z,11.60
2023-03-02T15:19:39.043Z,11.50
2023-03-02T15:21:16.514Z,11.50
2023-03-02T15:22:49.422Z,11.50
2023-03-02T15:24:23.486Z,11.50
2023-03-02T15:26:00.614Z,11.50
2023-03-02T15:27:33.537Z,11.40
2023-03-02T15:29:06.878Z,11.30
2023-03-02T15:30:41.636Z,11.30
2023-03-02T15:32:15.045Z,11.30
2023-03-02T15:33:48.391Z,11.30
2023-03-02T15:35:22.515Z,11.30
2023-03-02T15:36:55.399Z,11.20
2023-03-02T15:38:28.885Z,11.30
2023-03-02T15:40:01.792Z,11.20
2023-03-02T15:41:35.229Z,11.20
2023-03-02T15:43:08.352Z,11.20
2023-03-02T15:44:41.305Z,11.20
2023-03-02T15:46:14.241Z,11.20
2023-03-02T15:47:47.295Z,11.20
2023-03-02T15:49:22.827Z,11.20
2023-03-02T15:51:02.352Z,11.10
2023-03-02T15:52:35.215Z,11.10
2023-03-02T15:54:10.775Z,11.10
2023-03-02T15:55:43.772Z,11.10
2023-03-02T15:57:17.517Z,11.00
2023-03-02T15:58:51.110Z,11.00
2023-03-02T16:00:24.645Z,10.90
2023-03-02T16:01:59.526Z,10.90
2023-03-02T16:03:32.788Z,10.90
2023-03-02T16:05:06.710Z,10.90
2023-03-02T16:06:41.266Z,10.90
2023-03-02T16:08:14.231Z,10.90
2023-03-02T16:09:47.274Z,10.80
2023-03-02T16:11:23.270Z,10.80
2023-03-02T16:12:56.357Z,10.80
2023-03-02T16:14:29.259Z,10.80
2023-03-02T16:16:03.217Z,10.80
2023-03-02T16:17:36.344Z,10.70
2023-03-02T16:19:12.667Z,10.70
2023-03-02T16:20:45.758Z,10.60
2023-03-02T16:22:20.170Z,10.60
2023-03-02T16:23:53.236Z,10.60
2023-03-02T16:25:26.285Z,10.60
2023-03-02T16:26:59.493Z,10.50
2023-03-02T16:28:32.520Z,10.50
2023-03-02T16:30:06.363Z,10.50
2023-03-02T16:31:40.312Z,10.40
2023-03-02T16:33:16.398Z,10.40
2023-03-02T16:34:49.550Z,10.30
2023-03-02T16:36:23.309Z,10.20
2023-03-02T16:37:57.928Z,10.20
2023-03-02T16:39:32.489Z,10.10
2023-03-02T16:41:06.345Z,10.10
2023-03-02T16:42:39.243Z,10.10
2023-03-02T16:44:13.418Z,10.00
2023-03-02T16:45:47.565Z,9.90
2023-03-02T16:47:20.507Z,9.90
2023-03-02T16:48:53.835Z,9.90
2023-03-02T16:50:26.817Z,9.90
2023-03-02T16:52:00.652Z,9.80
2023-03-02T16:53:35.071Z,9.80
2023-03-02T16:55:13.031Z,9.80
2023-03-02T16:56:47.305Z,9.80
2023-03-02T16:58:20.610Z,9.70
2023-03-02T16:59:58.303Z,9.60
2023-03-02T17:01:31.525Z,9.60
2023-03-02T17:03:10.141Z,9.60
2023-03-02T17:04:43.444Z,9.50
2023-03-02T17:06:17.823Z,9.50
2023-03-02T17:07:51.044Z,9.50
2023-03-02T17:09:25.561Z,9.40
2023-03-02T17:10:58.852Z,9.40
2023-03-02T17:12:35.468Z,9.30
2023-03-02T17:14:09.395Z,9.20
2023-03-02T17:15:42.460Z,9.20
2023-03-02T17:17:16.274Z,9.10
2023-03-02T17:18:52.281Z,9.10
2023-03-02T17:20:25.412Z,9.10
2023-03-02T17:21:58.971Z,9.10
2023-03-02T17:23:32.268Z,9.00
2023-03-02T17:25:07.275Z,8.90
2023-03-02T17:26:40.169Z,8.90
2023-03-02T17:28:14.978Z,9.00
2023-03-02T17:29:47.913Z,8.90
2023-03-02T17:31:20.986Z,8.90
2023-03-02T17:32:53.977Z,8.90
2023-03-02T17:34:30.578Z,8.80
2023-03-02T17:36:07.168Z,8.80
2023-03-02T17:37:40.528Z,8.80
2023-03-02T17:39:13.284Z,8.80
2023-03-02T17:40:47.685Z,8.80
2023-03-02T17:42:20.797Z,8.70
2023-03-02T17:43:53.782Z,8.70
2023-03-02T17:45:28.526Z,8.70
2023-03-02T17:47:03.810Z,8.60
2023-03-02T17:48:36.717Z,8.50
2023-03-02T17:50:11.210Z,8.50
2023-03-02T17:51:44.144Z,8.50
2023-03-02T17:53:17.078Z,8.40
2023-03-02T17:54:51.829Z,8.40
2023-03-02T17:56:28.929Z,8.30
2023-03-02T17:58:01.991Z,8.30
2023-03-02T17:59:35.012Z,8.20
2023-03-02T18:01:08.646Z,8.20
2023-03-02T18:02:41.587Z,8.20
2023-03-02T18:04:14.669Z,8.10
2023-03-02T18:05:47.642Z,8.10
2023-03-02T18:07:20.502Z,8.00
2023-03-02T18:08:53.908Z,8.00
2023-03-02T18:10:26.689Z,7.90
2023-03-02T18:12:02.574Z,7.90
2023-03-02T18:13:35.535Z,7.80
2023-03-02T18:15:09.722Z,7.80
2023-03-02T18:16:42.085Z,7.80
2023-03-02T18:18:15.498Z,7.70
2023-03-02T18:19:49.842Z,7.70
2023-03-02T18:21:23.291Z,7.70
2023-03-02T18:22:57.177Z,7.70
2023-03-02T18:24:30.065Z,7.60
2023-03-02T18:26:03.000Z,7.60
2023-03-02T18:27:37.355Z,7.50
2023-03-02T18:29:10.318Z,7.40
2023-03-02T18:30:43.651Z,7.30
2023-03-02T18:32:16.847Z,7.30
2023-03-02T18:33:50.097Z,7.20
2023-03-02T18:35:23.414Z,7.10
2023-03-02T18:36:56.226Z,7.00
2023-03-02T18:38:30.954Z,7.00
2023-03-02T18:40:06.458Z,7.00
2023-03-02T18:41:39.548Z,7.00
2023-03-02T18:43:13.825Z,6.90
2023-03-02T18:44:46.817Z,7.00
2023-03-02T18:46:22.134Z,6.90
2023-03-02T18:47:55.644Z,6.90
2023-03-02T18:49:28.866Z,6.90
2023-03-02T18:51:02.005Z,6.90
2023-03-02T18:52:35.008Z,6.90
2023-03-02T18:54:08.014Z,6.80
2023-03-02T18:55:41.350Z,6.80
2023-03-02T18:57:14.616Z,6.70
2023-03-02T18:58:49.701Z,6.70
2023-03-02T19:00:27.899Z,6.80
2023-03-02T19:02:01.422Z,6.80
2023-03-02T19:03:37.006Z,6.90
2023-03-02T19:05:10.708Z,6.90
2023-03-02T19:06:44.137Z,6.90
2023-03-02T19:08:16.847Z,6.90
2023-03-02T19:09:49.767Z,7.00
2023-03-02T19:11:23.056Z,6.90
2023-03-02T19:12:56.019Z,6.80
2023-03-02T19:14:30.332Z,6.70
2023-03-02T19:16:03.477Z,6.70
2023-03-02T19:17:36.598Z,6.70
2023-03-02T19:19:09.468Z,6.70
2023-03-02T19:20:42.489Z,6.60
2023-03-02T19:22:16.607Z,6.70
2023-03-02T19:23:49.505Z,6.80
2023-03-02T19:25:24.383Z,6.90
2023-03-02T19:26:57.988Z,6.80
2023-03-02T19:28:31.569Z,6.90
2023-03-02T19:30:06.793Z,6.90
2023-03-02T19:31:40.181Z,7.00
2023-03-02T19:33:12.999Z,7.00
2023-03-02T19:34:45.928Z,6.90
2023-03-02T19:36:18.833Z,6.70
2023-03-02T19:37:51.855Z,6.70
2023-03-02T19:39:24.772Z,6.80
2023-03-02T19:40:59.010Z,6.80
2023-03-02T19:42:34.793Z,6.80
2023-03-02T19:44:08.360Z,6.70
2023-03-02T19:45:42.839Z,6.70
2023-03-02T19:47:15.762Z,6.70
2023-03-02T19:48:49.011Z,6.70
2023-03-02T19:50:22.708Z,6.70
2023-03-02T19:51:55.827Z,6.70
2023-03-02T19:53:28.790Z,6.80
2023-03-02T19:55:01.839Z,6.80
2023-03-02T19:56:39.503Z,6.80
2023-03-02T19:58:16.859Z,6.80
2023-03-02T19:59:49.792Z,6.80
2023-03-02T20:01:25.747Z,6.80
2023-03-02T20:02:59.239Z,6.80
2023-03-02T20:04:32.576Z,6.70
2023-03-02T20:06:05.811Z,6.70
2023-03-02T20:07:41.625Z,6.70
2023-03-02T20:09:19.589Z,6.60
2023-03-02T20:10:53.153Z,6.60
2023-03-02T20:12:26.507Z,6.50
2023-03-02T20:14:02.023Z,6.50
2023-03-02T20:15:38.968Z,6.40
2023-03-02T20:17:13.335Z,6.30
2023-03-02T20:18:46.539Z,6.30
2023-03-02T20:20:19.535Z,6.30
2023-03-02T20:21:52.488Z,6.20
2023-03-02T20:23:25.474Z,6.10
2023-03-02T20:24:58.402Z,6.00
2023-03-02T20:26:31.781Z,6.10
2023-03-02T20:28:05.553Z,6.00
2023-03-02T20:29:43.283Z,6.00
2023-03-02T20:31:17.298Z,6.00
2023-03-02T20:32:51.905Z,6.00
2023-03-02T20:34:25.052Z,5.90
2023-03-02T20:36:00.670Z,5.80
2023-03-02T20:37:33.873Z,5.80
2023-03-02T20:39:11.249Z,5.70
2023-03-02T20:40:44.360Z,5.60
2023-03-02T20:42:17.366Z,5.60
2023-03-02T20:43:50.530Z,5.50
2023-03-02T20:45:23.533Z,5.40
2023-03-02T20:46:59.030Z,5.40
2023-03-02T20:48:33.366Z,5.40
2023-03-02T20:50:06.653Z,5.40
2023-03-02T20:51:41.947Z,5.40
2023-03-02T20:53:15.584Z,5.40
2023-03-02T20:54:48.642Z,5.40
2023-03-02T20:56:22.330Z,5.30
2023-03-02T20:57:55.314Z,5.30
2023-03-02T20:59:29.129Z,5.30
2023-03-02T21:01:02.161Z,5.30